createdAt,value
2019-02-27T09:12:51.712Z,100394.70
2019-02-27T09:15:23.538Z,100389.19
2019-02-27T09:17:54.756Z,100397.96
2019-02-27T09:20:27.550Z,100410.30
2019-02-27T09:22:59.078Z,100404.16
2019-02-27T09:25:30.207Z,100405.09
2019-02-27T09:28:03.441Z,100397.30
2019-02-27T09:30:34.804Z,100384.87
2019-02-27T09:33:06.023Z,100395.19
2019-02-27T09:35:40.779Z,100400.97
2019-02-27T09:38:13.637Z,100401.17
2019-02-27T09:40:44.901Z,100411.63
2019-02-27T09:43:17.794Z,100406.45
2019-02-27T09:45:51.331Z,100408.22
2019-02-27T09:48:22.839Z,100417.19
2019-02-27T09:50:54.248Z,100415.76
2019-02-27T09:53:28.285Z,100405.06
2019-02-27T09:56:05.106Z,100416.21
2019-02-27T09:58:36.825Z,100422.61
2019-02-27T10:01:13.834Z,100425.95
2019-02-27T10:03:45.254Z,100429.87
2019-02-27T10:06:18.666Z,100441.30
2019-02-27T10:08:50.486Z,100436.70
2019-02-27T10:11:22.450Z,100430.70
2019-02-27T10:13:54.338Z,100420.96
2019-02-27T10:16:25.823Z,100423.41
2019-02-27T10:18:57.737Z,100423.41
2019-02-27T10:21:33.943Z,100420.70
2019-02-27T10:24:06.038Z,100420.70
2019-02-27T10:26:39.792Z,100415.34
2019-02-27T10:29:13.420Z,100415.34
2019-02-27T10:31:44.920Z,100405.16
2019-02-27T10:34:19.152Z,100403.79
2019-02-27T10:36:51.695Z,100416.61
2019-02-27T10:39:23.267Z,100416.16
2019-02-27T10:41:54.951Z,100413.53
2019-02-27T10:44:26.441Z,100411.70
2019-02-27T10:47:00.678Z,100400.36
2019-02-27T10:49:32.647Z,100404.21
2019-02-27T10:52:04.002Z,100412.75
2019-02-27T10:54:37.056Z,100405.09
2019-02-27T10:57:08.708Z,100411.20
2019-02-27T10:59:40.026Z,100413.26
2019-02-27T11:02:12.395Z,100413.33
2019-02-27T11:04:46.843Z,100413.95
2019-02-27T11:07:18.507Z,100418.05
2019-02-27T11:09:49.883Z,100409.79
2019-02-27T11:12:21.401Z,100404.39
2019-02-27T11:14:52.778Z,100414.53
2019-02-27T11:17:24.354Z,100413.31
2019-02-27T11:19:57.512Z,100418.25
2019-02-27T11:22:31.386Z,100406.22
2019-02-27T11:25:03.790Z,100406.22
2019-02-27T11:27:36.371Z,100407.53
2019-02-27T11:30:14.320Z,100407.53
2019-02-27T11:32:45.483Z,100402.11
2019-02-27T11:35:16.835Z,100402.11
2019-02-27T11:37:48.129Z,100405.39
2019-02-27T11:40:21.723Z,100407.16
2019-02-27T11:42:53.172Z,100421.64
2019-02-27T11:45:25.822Z,100405.73
2019-02-27T11:47:57.328Z,100412.86
2019-02-27T11:50:28.661Z,100424.38
2019-02-27T11:53:02.715Z,100424.38
2019-02-27T11:55:33.292Z,100427.19
2019-02-27T12:01:08.375Z,100433.74
2019-02-27T12:03:48.120Z,100428.70
2019-02-27T12:06:24.355Z,100427.59
2019-02-27T12:09:01.094Z,100425.75
2019-02-27T12:11:37.452Z,100428.70
2019-02-27T12:14:21.209Z,100441.98
2019-02-27T12:16:58.220Z,100441.98
2019-02-27T12:19:29.510Z,100436.05
2019-02-27T12:22:01.451Z,100436.16
2019-02-27T12:24:33.764Z,100440.84
2019-02-27T12:27:07.399Z,100442.48
2019-02-27T12:29:40.150Z,100454.16
2019-02-27T12:32:11.556Z,100442.52
2019-02-27T12:34:42.805Z,100440.42
2019-02-27T12:37:23.909Z,100449.38
2019-02-27T12:39:49.647Z,100449.77
2019-02-27T12:42:21.142Z,100451.41
2019-02-27T12:44:54.567Z,100441.41
2019-02-27T12:47:26.244Z,100445.17
2019-02-27T12:49:57.771Z,100445.17
2019-02-27T12:52:29.415Z,100449.53
2019-02-27T12:55:01.782Z,100449.53
2019-02-27T12:57:35.049Z,100444.50
2019-02-27T13:00:13.879Z,100450.19
2019-02-27T13:02:45.386Z,100449.45
2019-02-27T13:05:18.403Z,100445.48
2019-02-27T13:07:50.080Z,100451.20
2019-02-27T13:10:23.873Z,100454.37
2019-02-27T13:12:55.351Z,100454.83
2019-02-27T13:15:28.932Z,100452.72
2019-02-27T13:18:00.449Z,100460.04
2019-02-27T13:20:34.207Z,100456.91
2019-02-27T13:23:05.697Z,100456.91
2019-02-27T13:25:37.498Z,100443.48
2019-02-27T13:28:08.876Z,100449.20
2019-02-27T13:30:41.570Z,100449.20
2019-02-27T13:33:13.412Z,100462.38
2019-02-27T13:35:45.447Z,100462.38
2019-02-27T13:38:18.376Z,100471.43
2019-02-27T13:40:50.126Z,100471.54
2019-02-27T13:43:24.391Z,100471.54
2019-02-27T13:45:55.206Z,100470.52
2019-02-27T13:48:26.692Z,100466.47
2019-02-27T13:50:59.352Z,100468.47
2019-02-27T13:53:31.996Z,100473.16
2019-02-27T13:56:03.208Z,100475.94
2019-02-27T13:58:36.620Z,100476.52
2019-02-27T14:01:08.273Z,100473.97
2019-02-27T14:03:39.653Z,100476.81
2019-02-27T14:06:11.035Z,100476.81
2019-02-27T14:08:43.862Z,100481.19
2019-02-27T14:11:15.465Z,100480.79
2019-02-27T14:13:47.036Z,100480.79
2019-02-27T14:16:18.381Z,100485.55
2019-02-27T14:18:50.594Z,100488.67
2019-02-27T14:21:22.174Z,100490.81
2019-02-27T14:23:53.587Z,100490.81
2019-02-27T14:26:25.143Z,100487.89
2019-02-27T14:28:56.836Z,100498.34
2019-02-27T14:31:33.469Z,100498.56
2019-02-27T14:34:05.243Z,100500.86
2019-02-27T14:36:39.397Z,100500.46
2019-02-27T14:39:15.079Z,100500.86
2019-02-27T14:41:48.773Z,100505.86
2019-02-27T14:44:21.070Z,100505.86
2019-02-27T14:46:53.758Z,100505.34
2019-02-27T14:49:27.277Z,100509.55
2019-02-27T14:52:02.852Z,100503.59
2019-02-27T14:54:52.634Z,100506.15
2019-02-27T14:57:20.390Z,100510.47
2019-02-27T14:59:55.913Z,100511.33
2019-02-27T15:02:27.651Z,100517.25
2019-02-27T15:04:58.993Z,100518.95
2019-02-27T15:07:30.446Z,100516.80
2019-02-27T15:10:01.876Z,100512.92
2019-02-27T15:12:34.781Z,100509.06
2019-02-27T15:15:10.168Z,100517.70
2019-02-27T15:17:41.700Z,100514.83
2019-02-27T15:20:18.207Z,100521.20
2019-02-27T15:22:52.460Z,100533.60
2019-02-27T15:25:22.872Z,100523.62
2019-02-27T15:27:58.792Z,100526.77
2019-02-27T15:30:32.358Z,100546.76
2019-02-27T15:33:05.379Z,100543.34
2019-02-27T15:35:37.400Z,100545.54
2019-02-27T15:38:11.768Z,100549.56
2019-02-27T15:40:42.811Z,100544.44
2019-02-27T15:43:17.314Z,100543.77
2019-02-27T15:45:49.118Z,100547.19
2019-02-27T15:48:20.579Z,100557.67
2019-02-27T15:50:57.209Z,100564.64
2019-02-27T15:53:31.211Z,100565.09
2019-02-27T15:56:05.458Z,100576.02
2019-02-27T15:58:36.655Z,100571.66
2019-02-27T16:01:09.744Z,100574.32
2019-02-27T16:03:42.038Z,100579.50
2019-02-27T16:06:16.413Z,100582.09
2019-02-27T16:08:48.019Z,100579.45
2019-02-27T16:11:20.060Z,100582.91
2019-02-27T16:13:51.523Z,100579.41
2019-02-27T16:16:23.514Z,100576.34
2019-02-27T16:18:56.098Z,100579.89
2019-02-27T16:21:27.486Z,100584.22
2019-02-27T16:24:00.715Z,100585.12
2019-02-27T16:26:32.708Z,100588.63
2019-02-27T16:29:04.632Z,100595.15
2019-02-27T16:31:37.131Z,100595.23
2019-02-27T16:34:09.857Z,100590.78
2019-02-27T16:36:41.215Z,100597.67
2019-02-27T16:39:13.104Z,100603.02
2019-02-27T16:41:45.187Z,100597.49
2019-02-27T16:44:21.567Z,100599.20
2019-02-27T16:46:51.169Z,100596.50
2019-02-27T16:49:22.714Z,100595.29
2019-02-27T16:51:54.330Z,100595.38
2019-02-27T16:54:27.618Z,100590.42
2019-02-27T16:56:59.924Z,100590.06
2019-02-27T16:59:31.300Z,100592.27
2019-02-27T17:02:04.757Z,100588.40
2019-02-27T17:04:36.642Z,100588.31
2019-02-27T17:07:09.918Z,100596.59
2019-02-27T17:09:43.884Z,100589.56
2019-02-27T17:12:16.367Z,100584.84
2019-02-27T17:14:48.861Z,100586.55
2019-02-27T17:17:20.853Z,100583.00
2019-02-27T17:19:53.114Z,100574.77
2019-02-27T17:22:24.700Z,100581.69
2019-02-27T17:24:57.098Z,100582.86
2019-02-27T17:27:31.415Z,100581.06
2019-02-27T17:30:02.766Z,100587.17
2019-02-27T17:32:34.822Z,100586.00
2019-02-27T17:35:06.981Z,100589.42
2019-02-27T17:37:39.997Z,100583.80
2019-02-27T17:40:14.690Z,100585.20
2019-02-27T17:42:53.186Z,100584.89
2019-02-27T17:45:26.487Z,100580.39
2019-02-27T17:47:57.755Z,100589.52
2019-02-27T17:50:31.677Z,100584.76
2019-02-27T17:53:02.470Z,100579.63
2019-02-27T17:55:34.000Z,100587.14
2019-02-27T17:58:05.429Z,100591.09
2019-02-27T18:00:51.126Z,100585.11
2019-02-27T18:03:20.971Z,100588.62
2019-02-27T18:05:52.796Z,100597.67
2019-02-27T18:08:24.375Z,100590.33
2019-02-27T18:10:55.821Z,100585.52
2019-02-27T18:13:27.534Z,100583.89
2019-02-27T18:15:59.331Z,100588.70
2019-02-27T18:18:30.811Z,100589.97
2019-02-27T18:21:02.201Z,100590.42
2019-02-27T18:23:37.056Z,100591.44
2019-02-27T18:26:15.652Z,100590.18
2019-02-27T18:28:45.748Z,100593.03
2019-02-27T18:31:17.661Z,100595.77
2019-02-27T18:33:50.287Z,100600.33
2019-02-27T18:36:22.430Z,100594.17
2019-02-27T18:38:54.518Z,100600.86
2019-02-27T18:41:26.119Z,100596.13
2019-02-27T18:43:58.176Z,100598.74
2019-02-27T18:46:30.063Z,100594.70
2019-02-27T18:49:01.601Z,100595.11
2019-02-27T18:51:33.978Z,100601.27
2019-02-27T18:54:05.395Z,100602.86
2019-02-27T18:56:40.290Z,100598.98
2019-02-27T18:59:10.115Z,100598.09
2019-02-27T19:01:45.232Z,100593.17
2019-02-27T19:04:15.526Z,100589.86
2019-02-27T19:06:47.084Z,100581.75
2019-02-27T19:09:18.581Z,100584.84
2019-02-27T19:11:50.888Z,100573.20
2019-02-27T19:14:24.221Z,100573.36
2019-02-27T19:16:55.939Z,100567.70
2019-02-27T19:19:27.456Z,100566.84
2019-02-27T19:21:59.370Z,100566.14
2019-02-27T19:24:32.514Z,100559.00
2019-02-27T19:27:04.330Z,100558.26
2019-02-27T19:29:36.961Z,100557.66
2019-02-27T19:32:09.669Z,100540.69
2019-02-27T19:34:44.430Z,100536.30
2019-02-27T19:37:18.788Z,100533.72
2019-02-27T19:39:50.326Z,100536.86
2019-02-27T19:42:22.918Z,100543.41
2019-02-27T19:44:56.289Z,100539.02
2019-02-27T19:47:28.196Z,100540.80
2019-02-27T19:50:02.611Z,100539.71
2019-02-27T19:52:35.153Z,100542.23
2019-02-27T19:55:08.208Z,100542.65
2019-02-27T19:57:42.479Z,100549.86
2019-02-27T20:00:33.588Z,100546.36
2019-02-27T20:03:01.798Z,100546.06
2019-02-27T20:05:33.407Z,100536.66
2019-02-27T20:08:09.932Z,100537.23
2019-02-27T20:10:38.103Z,100534.25
2019-02-27T20:13:09.575Z,100525.33
2019-02-27T20:15:42.799Z,100531.02
2019-02-27T20:18:17.373Z,100525.20
2019-02-27T20:20:48.727Z,100518.29
2019-02-27T20:23:20.196Z,100516.66
2019-02-27T20:25:51.728Z,100515.47
2019-02-27T20:28:24.366Z,100507.77
2019-02-27T20:30:55.735Z,100514.02
2019-02-27T20:33:27.349Z,100504.61
2019-02-27T20:36:00.302Z,100502.97
2019-02-27T20:38:32.200Z,100502.00
2019-02-27T20:41:06.016Z,100492.52
2019-02-27T20:43:38.072Z,100491.47
2019-02-27T20:46:10.412Z,100487.98
2019-02-27T20:48:42.108Z,100479.20
2019-02-27T20:51:13.837Z,100474.14
2019-02-27T20:53:45.473Z,100476.74
2019-02-27T20:56:16.695Z,100477.29
2019-02-27T20:58:51.045Z,100468.34
2019-02-27T21:01:21.416Z,100471.75
2019-02-27T21:03:52.833Z,100461.38
2019-02-27T21:06:24.395Z,100460.89
2019-02-27T21:08:55.685Z,100454.53
2019-02-27T21:11:29.807Z,100451.89
2019-02-27T21:14:02.514Z,100441.40
2019-02-27T21:16:34.417Z,100437.16
2019-02-27T21:19:05.835Z,100437.98
2019-02-27T21:21:37.127Z,100435.38
2019-02-27T21:24:09.454Z,100442.37
2019-02-27T21:26:40.842Z,100428.94
2019-02-27T21:29:12.880Z,100441.10
2019-02-27T21:31:44.257Z,100432.44
2019-02-27T21:34:19.294Z,100443.72
2019-02-27T21:36:49.016Z,100438.09
2019-02-27T21:39:22.511Z,100436.80
2019-02-27T21:41:53.726Z,100433.17
2019-02-27T21:44:25.864Z,100430.94
2019-02-27T21:46:59.383Z,100431.83
2019-02-27T21:49:32.241Z,100428.38
2019-02-27T21:52:04.067Z,100425.77
2019-02-27T21:54:39.277Z,100416.33
2019-02-27T21:57:11.737Z,100418.35
2019-02-27T21:59:43.368Z,100415.69
2019-02-27T22:02:16.017Z,100411.11
2019-02-27T22:04:47.874Z,100412.05
2019-02-27T22:07:19.461Z,100405.09
2019-02-27T22:09:51.196Z,100406.05
2019-02-27T22:12:22.602Z,100400.96
2019-02-27T22:14:54.022Z,100398.09
2019-02-27T22:17:26.664Z,100401.21
2019-02-27T22:19:58.185Z,100406.37
2019-02-27T22:22:30.030Z,100400.32
2019-02-27T22:25:01.276Z,100414.39
2019-02-27T22:27:32.535Z,100414.01
2019-02-27T22:30:06.481Z,100420.58
2019-02-27T22:32:37.792Z,100416.67
2019-02-27T22:35:10.759Z,100420.61
2019-02-27T22:37:42.518Z,100415.98
2019-02-27T22:40:18.796Z,100410.44
2019-02-27T22:42:50.189Z,100412.11
2019-02-27T22:45:21.590Z,100412.08
2019-02-27T22:47:54.628Z,100412.80
2019-02-27T22:50:26.181Z,100412.02
2019-02-27T22:52:57.556Z,100410.75
2019-02-27T22:55:28.768Z,100401.20
2019-02-27T22:58:00.006Z,100405.83
2019-02-27T23:00:51.598Z,100400.22
2019-02-27T23:03:33.358Z,100394.23
2019-02-27T23:06:04.897Z,100390.39
2019-02-27T23:08:36.223Z,100389.57
2019-02-27T23:11:07.442Z,100390.84
2019-02-27T23:13:38.905Z,100386.50
2019-02-27T23:16:10.192Z,100383.08
2019-02-27T23:18:41.498Z,100387.38
2019-02-27T23:21:12.897Z,100384.34
2019-02-27T23:23:45.248Z,100381.30
2019-02-27T23:26:19.874Z,100380.13
2019-02-27T23:28:49.642Z,100379.14
2019-02-27T23:31:23.310Z,100373.70
2019-02-27T23:33:54.754Z,100377.98
2019-02-27T23:36:26.105Z,100370.25
2019-02-27T23:38:57.401Z,100375.07
2019-02-27T23:41:29.139Z,100368.27
2019-02-27T23:44:00.495Z,100357.48
2019-02-27T23:46:32.218Z,100344.48
2019-02-27T23:49:06.525Z,100345.89
2019-02-27T23:51:36.607Z,100341.03
2019-02-27T23:54:08.058Z,100346.64
2019-02-27T23:56:39.387Z,100344.08
2019-02-27T23:59:10.898Z,100342.50
